Time;durP1;ratioP1;P1;durP2;ratioP2;P2;SDS_P1;SDS_P2;PMS_P1;PMS_P2;Temp;Humidity;BMP_temperature;BMP_pressure;BME280_temperature;BME280_humidity;BME280_pressure;Samples;Min_cycle;Max_cycle;Signal;HPM_P1;HPM_P2
2023/04/28 00:01:29;;;;;;;9.07;5.53;;;10.50;1.00;;;;;;5079399;28;20218;-59
2023/04/28 00:03:57;;;;;;;7.73;5.20;;;10.40;1.00;;;;;;5079323;28;20209;-59
2023/04/28 00:06:24;;;;;;;10.83;5.90;;;10.40;1.00;;;;;;5078739;28;20592;-59
2023/04/28 00:08:51;;;;;;;7.40;5.13;;;10.30;1.00;;;;;;5079710;28;20208;-59
2023/04/28 00:11:18;;;;;;;10.47;5.77;;;10.30;1.00;;;;;;5079300;28;20337;-59
2023/04/28 00:13:45;;;;;;;6.40;5.63;;;10.30;1.00;;;;;;5079852;28;20204;-59
2023/04/28 00:16:12;;;;;;;8.07;6.13;;;10.20;1.00;;;;;;5078264;28;20232;-59
2023/04/28 00:18:39;;;;;;;9.03;6.67;;;10.20;1.00;;;;;;5082994;28;20341;-59
2023/04/28 00:21:06;;;;;;;10.23;5.93;;;10.30;1.00;;;;;;5082304;28;20204;-59
2023/04/28 00:23:33;;;;;;;8.60;6.67;;;10.10;1.00;;;;;;5083119;28;20228;-59
2023/04/28 00:26:00;;;;;;;8.60;6.43;;;10.20;1.00;;;;;;5064566;28;20219;-59
2023/04/28 00:28:26;;;;;;;8.07;6.10;;;10.10;1.00;;;;;;5065111;28;20206;-59
2023/04/28 00:31:01;;;;;;;10.13;6.03;;;10.10;1.00;;;;;;5082515;28;20548;-59
2023/04/28 00:33:28;;;;;;;14.13;7.10;;;10.20;1.00;;;;;;5082133;28;20261;-59
2023/04/28 00:35:59;;;;;;;8.63;6.20;;;10.30;62.80;;;;;;5080173;28;20203;-59
2023/04/28 00:38:26;;;;;;;10.97;7.00;;;10.20;1.00;;;;;;5064794;28;20200;-59
2023/04/28 00:40:53;;;;;;;8.13;6.03;;;10.20;1.00;;;;;;5082587;28;20215;-59
2023/04/28 00:43:20;;;;;;;12.00;6.87;;;10.20;1.00;;;;;;5064999;28;20237;-59
2023/04/28 00:45:49;;;;;;;8.77;6.17;;;10.00;1.00;;;;;;5082665;28;20211;-59
2023/04/28 00:48:16;;;;;;;10.33;5.90;;;10.00;1.00;;;;;;5083099;28;20208;-59
2023/04/28 00:50:45;;;;;;;10.53;7.43;;;10.00;1.00;;;;;;5080984;28;20316;-59
2023/04/28 00:53:12;;;;;;;9.07;6.13;;;10.10;70.80;;;;;;5082014;28;20687;-59
2023/04/28 00:55:39;;;;;;;9.33;6.60;;;10.10;53.80;;;;;;5065195;28;20699;-59
2023/04/28 00:58:06;;;;;;;8.87;6.60;;;10.00;99.90;;;;;;5082852;28;20206;-59
2023/04/28 01:00:34;;;;;;;11.20;7.07;;;9.90;99.90;;;;;;5082502;28;20683;-59
2023/04/28 01:03:01;;;;;;;11.27;6.87;;;9.90;96.50;;;;;;5065073;28;20212;-59
2023/04/28 01:05:29;;;;;;;9.23;6.70;;;10.00;99.90;;;;;;5081430;28;20359;-59
2023/04/28 01:07:56;;;;;;;9.80;6.70;;;9.90;21.00;;;;;;5070829;28;20226;-59
2023/04/28 01:10:23;;;;;;;9.80;6.53;;;10.00;84.50;;;;;;5080702;28;20295;-59
2023/04/28 01:12:49;;;;;;;10.83;6.77;;;9.90;1.00;;;;;;5063685;28;20245;-59
2023/04/28 01:15:18;;;;;;;9.60;6.57;;;9.90;26.50;;;;;;5063168;28;20201;-59
2023/04/28 01:17:46;;;;;;;9.97;6.40;;;9.80;22.40;;;;;;5076795;28;20203;-60
2023/04/28 01:20:13;;;;;;;9.30;6.53;;;9.80;99.90;;;;;;5081458;28;20250;-59
2023/04/28 01:22:41;;;;;;;9.97;6.90;;;9.70;1.00;;;;;;5063221;28;20548;-59
2023/04/28 01:25:08;;;;;;;9.47;6.43;;;9.80;50.10;;;;;;5081095;28;20211;-60
2023/04/28 01:27:34;;;;;;;8.50;6.30;;;9.80;1.00;;;;;;5062046;28;20220;-59
2023/04/28 01:30:01;;;;;;;10.50;6.63;;;9.70;1.00;;;;;;5081047;28;20256;-59
2023/04/28 01:32:28;;;;;;;9.53;6.60;;;9.70;1.00;;;;;;5063253;28;20214;-59
2023/04/28 01:34:55;;;;;;;10.53;6.63;;;9.80;1.00;;;;;;5063169;28;20208;-58
2023/04/28 01:37:22;;;;;;;9.13;6.40;;;9.70;1.00;;;;;;5070181;28;20298;-59
2023/04/28 01:39:49;;;;;;;10.73;6.53;;;9.80;47.50;;;;;;5081405;28;20230;-59
2023/04/28 01:42:16;;;;;;;8.57;6.83;;;9.80;1.00;;;;;;5081548;28;20239;-59
2023/04/28 01:44:43;;;;;;;9.13;6.83;;;9.70;1.00;;;;;;5063258;28;20290;-59
2023/04/28 01:47:10;;;;;;;9.10;6.93;;;9.80;1.00;;;;;;5077984;28;20205;-59
2023/04/28 01:49:37;;;;;;;11.07;6.77;;;9.70;1.00;;;;;;5081348;28;20229;-59
2023/04/28 01:52:04;;;;;;;8.77;6.50;;;9.60;1.00;;;;;;5081347;28;20208;-59
2023/04/28 01:54:31;;;;;;;11.70;6.40;;;9.60;1.00;;;;;;5081365;28;20245;-58
2023/04/28 01:56:57;;;;;;;8.63;6.40;;;9.60;1.00;;;;;;5063873;28;20216;-59
2023/04/28 01:59:24;;;;;;;7.93;6.43;;;9.60;1.00;;;;;;5062261;28;20709;-59
2023/04/28 02:01:51;;;;;;;9.33;7.23;;;9.70;1.00;;;;;;5082125;28;20683;-59
2023/04/28 02:04:18;;;;;;;10.13;7.77;;;9.60;1.00;;;;;;5064443;28;20202;-58
2023/04/28 02:06:46;;;;;;;11.03;6.83;;;9.60;3.20;;;;;;5064573;28;20230;-59
2023/04/28 02:09:12;;;;;;;9.40;6.67;;;9.60;52.90;;;;;;5063030;28;20205;-59
2023/04/28 02:11:40;;;;;;;11.80;6.60;;;9.70;1.00;;;;;;5082190;28;20250;-59
2023/04/28 02:14:06;;;;;;;10.40;6.80;;;9.60;1.00;;;;;;5081076;28;20279;-59
2023/04/28 02:16:33;;;;;;;9.57;6.90;;;9.60;26.60;;;;;;5081667;28;20260;-59
2023/04/28 02:19:00;;;;;;;11.87;6.73;;;9.60;14.80;;;;;;5063875;28;20230;-59
2023/04/28 02:21:27;;;;;;;9.13;6.37;;;9.60;99.90;;;;;;5062687;28;20219;-58
2023/04/28 02:23:54;;;;;;;8.47;6.40;;;9.60;47.00;;;;;;5080887;28;20238;-59
2023/04/28 02:26:21;;;;;;;11.37;6.93;;;9.50;1.00;;;;;;5080819;28;20622;-59
2023/04/28 02:28:48;;;;;;;12.33;8.73;;;9.40;99.90;;;;;;5080519;28;20222;-59
2023/04/28 02:31:15;;;;;;;16.23;8.03;;;9.40;99.90;;;;;;5062565;28;20708;-59
2023/04/28 02:33:43;;;;;;;9.90;6.63;;;9.40;99.90;;;;;;5079960;28;20210;-59
2023/04/28 02:36:10;;;;;;;8.67;6.67;;;9.40;99.90;;;;;;5062253;28;20268;-60
2023/04/28 02:38:37;;;;;;;9.37;6.90;;;9.40;99.90;;;;;;5069453;28;20203;-59
2023/04/28 02:41:06;;;;;;;10.07;6.70;;;9.50;99.90;;;;;;5080300;28;20216;-58
2023/04/28 02:43:34;;;;;;;10.07;7.00;;;9.40;99.90;;;;;;5079926;28;20290;-59
2023/04/28 02:46:02;;;;;;;14.47;6.90;;;9.40;99.90;;;;;;5078113;28;20203;-58
2023/04/28 02:48:29;;;;;;;10.30;7.07;;;9.40;99.90;;;;;;5062613;28;20281;-59
2023/04/28 02:50:56;;;;;;;10.47;7.27;;;9.40;99.90;;;;;;5079683;28;20202;-59
2023/04/28 02:53:23;;;;;;;14.43;7.37;;;9.40;99.90;;;;;;5063282;28;20280;-58
2023/04/28 02:55:50;;;;;;;9.90;6.97;;;9.40;99.90;;;;;;5080650;28;20216;-62
2023/04/28 02:58:17;;;;;;;12.17;7.47;;;9.40;99.90;;;;;;5061979;28;20215;-61
2023/04/28 03:00:45;;;;;;;17.10;7.30;;;9.40;99.90;;;;;;5080041;28;20218;-59
2023/04/28 03:03:12;;;;;;;11.13;6.97;;;9.50;99.90;;;;;;5080408;28;20252;-59
2023/04/28 03:05:39;;;;;;;12.70;7.40;;;9.40;99.90;;;;;;5062460;28;20236;-59
2023/04/28 03:08:06;;;;;;;9.87;7.17;;;9.50;99.90;;;;;;5061344;28;20316;-61
2023/04/28 03:10:33;;;;;;;10.27;6.77;;;9.50;99.90;;;;;;5062755;28;20203;-59
2023/04/28 03:13:00;;;;;;;11.17;7.77;;;9.50;99.90;;;;;;5046239;28;20264;-59
2023/04/28 03:15:27;;;;;;;12.33;7.80;;;9.50;99.90;;;;;;5061896;28;20710;-59
2023/04/28 03:17:54;;;;;;;9.63;7.03;;;9.50;99.90;;;;;;5061631;28;20207;-59
2023/04/28 03:20:20;;;;;;;12.90;7.73;;;9.50;99.90;;;;;;5061715;28;20229;-59
2023/04/28 03:22:47;;;;;;;13.13;7.33;;;9.50;1.00;;;;;;5079180;28;20204;-59
2023/04/28 03:25:14;;;;;;;11.23;7.53;;;9.60;1.00;;;;;;5061011;28;20204;-59
2023/04/28 03:27:41;;;;;;;9.23;6.93;;;9.70;1.00;;;;;;5075209;28;20235;-58
2023/04/28 03:30:09;;;;;;;11.93;7.63;;;9.60;99.90;;;;;;5044009;28;20203;-59
2023/04/28 03:32:36;;;;;;;14.27;8.00;;;9.60;1.00;;;;;;5079816;28;20207;-59
2023/04/28 03:35:03;;;;;;;12.53;8.60;;;9.60;99.90;;;;;;5068772;28;20239;-59
2023/04/28 03:37:30;;;;;;;12.70;7.93;;;9.50;99.90;;;;;;5080518;28;20741;-59
2023/04/28 03:39:57;;;;;;;10.70;8.00;;;9.60;1.00;;;;;;5061526;28;20309;-59
2023/04/28 03:42:24;;;;;;;12.53;8.50;;;9.70;1.00;;;;;;5077310;28;20210;-58
2023/04/28 03:44:51;;;;;;;12.00;8.27;;;9.60;1.00;;;;;;5078720;28;20204;-59
2023/04/28 03:47:18;;;;;;;15.43;8.53;;;9.70;1.00;;;;;;5077080;28;20287;-59
2023/04/28 03:49:45;;;;;;;13.87;7.97;;;9.70;1.00;;;;;;5078247;28;20200;-59
2023/04/28 03:52:12;;;;;;;12.73;8.53;;;9.70;1.00;;;;;;5062036;28;20666;-59
2023/04/28 03:54:40;;;;;;;11.93;8.17;;;9.70;1.00;;;;;;5079390;28;20552;-59
2023/04/28 03:57:07;;;;;;;10.70;8.50;;;9.70;1.00;;;;;;5078011;28;20778;-59
2023/04/28 03:59:34;;;;;;;11.67;8.37;;;9.70;1.00;;;;;;5078833;28;20202;-59
2023/04/28 04:02:00;;;;;;;12.70;8.53;;;9.70;1.00;;;;;;5080216;28;20335;-59
2023/04/28 04:04:27;;;;;;;12.80;9.30;;;9.70;1.00;;;;;;5080552;28;20194;-59
2023/04/28 04:06:55;;;;;;;14.87;9.57;;;9.60;1.00;;;;;;5045548;28;20266;-59
2023/04/28 04:09:22;;;;;;;14.37;9.23;;;9.60;1.00;;;;;;5078293;28;20201;-59
2023/04/28 04:11:48;;;;;;;14.07;8.63;;;9.70;1.00;;;;;;5078366;28;20228;-59
2023/04/28 04:14:15;;;;;;;10.33;8.53;;;9.70;1.00;;;;;;5078551;28;20200;-59
2023/04/28 04:16:43;;;;;;;15.03;8.73;;;9.60;1.00;;;;;;5078806;28;20225;-59
2023/04/28 04:19:10;;;;;;;11.80;8.60;;;9.70;99.90;;;;;;5079248;28;20715;-59
2023/04/28 04:21:37;;;;;;;15.77;8.87;;;9.80;99.90;;;;;;5045139;28;20305;-61
2023/04/28 04:24:04;;;;;;;12.70;8.67;;;9.80;29.10;;;;;;5078181;28;20398;-58
2023/04/28 04:26:31;;;;;;;14.47;9.20;;;9.80;1.00;;;;;;5060678;28;20566;-58
2023/04/28 04:28:57;;;;;;;12.70;9.00;;;9.80;92.50;;;;;;5078607;28;20286;-58
2023/04/28 04:31:24;;;;;;;14.83;10.10;;;9.80;99.90;;;;;;5078302;28;20210;-59
2023/04/28 04:33:52;;;;;;;14.53;8.77;;;9.90;99.90;;;;;;5078087;28;20630;-59
2023/04/28 04:36:19;;;;;;;14.50;9.80;;;9.90;10.20;;;;;;5067044;28;20291;-59
2023/04/28 04:38:45;;;;;;;12.60;9.00;;;9.80;99.90;;;;;;5078600;28;20206;-59
2023/04/28 04:41:13;;;;;;;13.90;9.60;;;9.90;1.00;;;;;;5079254;28;20810;-59
2023/04/28 04:43:40;;;;;;;14.03;9.83;;;9.90;99.90;;;;;;5078512;28;20606;-59
2023/04/28 04:46:07;;;;;;;15.07;9.67;;;9.80;1.00;;;;;;5060393;28;20215;-59
2023/04/28 04:48:34;;;;;;;16.40;9.57;;;9.90;1.00;;;;;;5043604;28;20203;-58
2023/04/28 04:51:01;;;;;;;16.60;10.50;;;9.70;1.00;;;;;;5077460;28;20654;-58
2023/04/28 04:53:28;;;;;;;15.27;10.87;;;9.80;1.00;;;;;;5060866;28;20260;-61
2023/04/28 04:55:54;;;;;;;12.90;9.37;;;9.70;99.90;;;;;;5078239;28;20301;-60
2023/04/28 04:58:21;;;;;;;16.30;9.63;;;9.80;99.90;;;;;;5074605;28;20282;-59
2023/04/28 05:00:48;;;;;;;15.30;10.10;;;9.90;99.90;;;;;;5078375;28;20265;-58
2023/04/28 05:03:16;;;;;;;12.10;9.60;;;9.90;99.90;;;;;;5082268;28;20204;-58
2023/04/28 05:05:44;;;;;;;14.50;9.93;;;10.00;99.90;;;;;;5065631;28;20210;-58
2023/04/28 05:08:12;;;;;;;15.23;10.50;;;9.90;1.00;;;;;;5081809;28;20227;-58
2023/04/28 05:10:39;;;;;;;15.47;10.73;;;9.90;1.00;;;;;;5082300;28;20211;-58
2023/04/28 05:13:06;;;;;;;18.60;10.77;;;9.90;1.00;;;;;;5083115;28;20256;-58
2023/04/28 05:15:33;;;;;;;16.77;10.97;;;9.90;1.00;;;;;;5064655;28;20232;-58
2023/04/28 05:18:00;;;;;;;14.40;10.50;;;9.90;1.00;;;;;;5064379;28;20261;-58
2023/04/28 05:20:27;;;;;;;15.43;11.40;;;10.00;1.00;;;;;;5082603;28;20215;-58
2023/04/28 05:22:53;;;;;;;18.93;12.00;;;10.00;1.00;;;;;;5081043;28;20575;-58
2023/04/28 05:25:20;;;;;;;15.23;11.17;;;10.00;1.00;;;;;;5081260;28;20213;-58
2023/04/28 05:27:47;;;;;;;16.63;11.20;;;10.10;1.00;;;;;;5082303;28;20199;-60
2023/04/28 05:30:14;;;;;;;14.97;10.63;;;10.10;1.00;;;;;;5063271;28;20214;-58
2023/04/28 05:32:41;;;;;;;14.00;9.97;;;10.10;1.00;;;;;;5070845;28;20270;-58
2023/04/28 05:35:08;;;;;;;16.33;11.03;;;10.20;1.00;;;;;;5080724;28;20214;-58
2023/04/28 05:37:36;;;;;;;18.10;11.13;;;10.30;1.00;;;;;;5063413;28;20249;-58
2023/04/28 05:40:04;;;;;;;12.77;9.47;;;10.10;1.00;;;;;;5081762;28;20212;-58
2023/04/28 05:42:31;;;;;;;14.93;10.27;;;10.10;99.90;;;;;;5082527;28;20616;-58
2023/04/28 05:44:57;;;;;;;15.03;11.37;;;10.20;99.90;;;;;;5081494;28;20522;-58
2023/04/28 05:47:24;;;;;;;14.10;10.50;;;10.30;99.90;;;;;;5063712;28;20678;-58
2023/04/28 05:49:51;;;;;;;12.40;10.80;;;10.20;1.00;;;;;;5081058;28;20207;-58
2023/04/28 05:52:18;;;;;;;17.43;11.53;;;10.30;99.90;;;;;;5063266;28;20248;-58
2023/04/28 05:54:45;;;;;;;16.60;10.30;;;10.20;99.90;;;;;;5063178;28;20654;-58
2023/04/28 05:57:12;;;;;;;17.03;11.47;;;10.40;1.00;;;;;;5079945;28;20229;-59
2023/04/28 05:59:38;;;;;;;14.60;10.83;;;10.40;99.90;;;;;;5062377;28;20643;-59
2023/04/28 06:02:06;;;;;;;15.83;11.37;;;10.40;1.00;;;;;;5072540;28;20675;-62
2023/04/28 06:04:32;;;;;;;15.63;10.43;;;10.40;1.00;;;;;;5081125;28;20209;-59
2023/04/28 06:07:00;;;;;;;15.33;10.80;;;10.50;99.90;;;;;;5081199;28;20242;-59
2023/04/28 06:09:27;;;;;;;14.07;11.37;;;10.50;99.90;;;;;;5062796;28;20215;-58
2023/04/28 06:11:53;;;;;;;14.83;10.93;;;10.50;99.90;;;;;;5062994;28;20584;-59
2023/04/28 06:14:22;;;;;;;14.17;10.80;;;10.60;1.00;;;;;;5080039;28;20239;-59
2023/04/28 06:16:50;;;;;;;14.50;10.40;;;10.60;1.00;;;;;;5079157;28;20251;-59
2023/04/28 06:19:19;;;;;;;14.67;11.27;;;10.70;1.00;;;;;;5045820;28;20234;-58
2023/04/28 06:21:49;;;;;;;18.43;12.27;;;10.50;1.00;;;;;;5069562;28;20230;-58
2023/04/28 06:24:16;;;;;;;19.53;12.10;;;10.60;1.00;;;;;;5079555;28;20286;-59
2023/04/28 06:26:43;;;;;;;17.20;11.23;;;10.70;1.00;;;;;;5063046;28;20199;-59
2023/04/28 06:29:10;;;;;;;16.37;11.17;;;10.70;1.00;;;;;;5062225;28;20205;-58
2023/04/28 06:31:37;;;;;;;17.53;11.33;;;10.80;99.90;;;;;;5062468;28;20250;-59
2023/04/28 06:34:04;;;;;;;16.43;11.50;;;10.60;99.90;;;;;;5061834;28;20220;-59
2023/04/28 06:36:31;;;;;;;16.67;12.33;;;10.70;99.90;;;;;;5080919;28;20260;-58
2023/04/28 06:38:58;;;;;;;15.83;12.17;;;10.70;1.00;;;;;;5062441;28;20206;-60
2023/04/28 06:41:25;;;;;;;16.80;12.00;;;10.80;1.00;;;;;;5080112;28;20300;-59
2023/04/28 06:43:52;;;;;;;17.77;11.67;;;10.80;99.90;;;;;;5080131;28;20517;-59
2023/04/28 06:46:19;;;;;;;14.40;11.80;;;10.80;77.40;;;;;;5079925;28;20256;-58
2023/04/28 06:48:46;;;;;;;17.47;11.93;;;10.90;1.00;;;;;;5045673;28;20235;-59
2023/04/28 06:51:13;;;;;;;18.50;12.47;;;10.90;1.00;;;;;;5079844;28;20198;-59
2023/04/28 06:53:41;;;;;;;20.17;12.30;;;11.00;99.90;;;;;;5079865;28;20592;-59
2023/04/28 06:56:07;;;;;;;15.70;11.80;;;10.90;1.00;;;;;;5080039;28;20261;-59
2023/04/28 06:58:37;;;;;;;21.77;12.50;;;10.90;1.00;;;;;;5079796;28;20733;-59
2023/04/28 07:01:04;;;;;;;18.33;12.33;;;11.00;1.00;;;;;;5079162;28;20221;-63
2023/04/28 07:03:31;;;;;;;18.00;12.40;;;10.90;1.00;;;;;;5080820;28;20604;-59
2023/04/28 07:05:58;;;;;;;18.23;13.40;;;10.90;1.00;;;;;;5062081;28;20555;-59
2023/04/28 07:08:25;;;;;;;17.57;12.83;;;10.90;1.00;;;;;;5080056;28;20224;-59
2023/04/28 07:10:52;;;;;;;16.93;12.07;;;11.00;99.90;;;;;;5080683;28;20389;-60
2023/04/28 07:13:19;;;;;;;17.53;12.77;;;11.10;48.80;;;;;;5080225;28;20300;-59
2023/04/28 07:15:46;;;;;;;16.30;12.63;;;11.10;99.90;;;;;;5079669;28;20624;-59
2023/04/28 07:18:13;;;;;;;15.77;11.57;;;11.10;99.90;;;;;;5079855;28;20237;-59
2023/04/28 07:20:40;;;;;;;19.47;12.67;;;11.10;99.90;;;;;;5079120;28;20576;-59
2023/04/28 07:23:07;;;;;;;20.40;12.83;;;11.00;99.90;;;;;;5079360;28;20228;-59
2023/04/28 07:25:35;;;;;;;19.13;12.53;;;11.00;99.90;;;;;;5079181;28;20643;-59
2023/04/28 07:28:02;;;;;;;17.40;13.00;;;10.90;99.90;;;;;;5079630;28;20606;-59
2023/04/28 07:30:29;;;;;;;15.23;11.97;;;11.00;99.90;;;;;;5078222;28;20222;-59
2023/04/28 07:32:57;;;;;;;17.77;12.97;;;11.00;99.90;;;;;;5061320;28;20207;-59
2023/04/28 07:35:24;;;;;;;16.67;13.00;;;10.90;99.90;;;;;;5079325;28;20564;-59
2023/04/28 07:37:51;;;;;;;17.87;13.70;;;11.10;99.90;;;;;;5078409;28;20203;-59
2023/04/28 07:40:18;;;;;;;17.30;13.33;;;11.10;99.90;;;;;;5078158;28;20578;-58
2023/04/28 07:42:46;;;;;;;16.93;13.10;;;11.10;99.90;;;;;;5061061;28;20724;-59
2023/04/28 07:45:14;;;;;;;15.47;12.67;;;11.00;99.90;;;;;;5078794;28;20596;-59
2023/04/28 07:47:41;;;;;;;21.63;14.00;;;11.20;99.90;;;;;;5079647;28;20322;-59
2023/04/28 07:50:10;;;;;;;18.27;13.63;;;11.30;99.90;;;;;;5061079;28;20207;-59
2023/04/28 07:52:38;;;;;;;17.57;13.83;;;11.20;99.90;;;;;;5079249;28;20661;-59
2023/04/28 07:55:05;;;;;;;17.47;12.83;;;11.30;99.90;;;;;;5079430;28;20593;-59
2023/04/28 07:57:32;;;;;;;17.60;13.37;;;11.30;99.90;;;;;;5079603;28;20224;-59
2023/04/28 07:59:59;;;;;;;20.47;14.53;;;11.40;99.90;;;;;;5076164;28;20210;-59
2023/04/28 08:02:26;;;;;;;17.10;13.90;;;11.30;99.90;;;;;;5079378;28;20221;-59
2023/04/28 08:04:53;;;;;;;18.93;14.27;;;11.40;99.90;;;;;;5075239;28;20217;-58
2023/04/28 08:07:21;;;;;;;18.97;14.17;;;11.50;99.90;;;;;;5080267;28;20230;-60
2023/04/28 08:09:48;;;;;;;21.03;14.17;;;11.40;99.90;;;;;;5060841;28;20542;-59
2023/04/28 08:12:15;;;;;;;20.53;14.40;;;11.60;99.90;;;;;;5080010;28;20216;-59
2023/04/28 08:14:41;;;;;;;19.07;14.60;;;11.60;99.90;;;;;;5077835;28;20563;-59
2023/04/28 08:17:08;;;;;;;18.13;13.20;;;11.70;99.90;;;;;;5079723;28;20245;-58
2023/04/28 08:19:35;;;;;;;20.53;14.03;;;11.70;99.90;;;;;;5074685;28;20260;-58
2023/04/28 08:22:06;;;;;;;20.43;14.03;;;11.80;99.90;;;;;;5079290;28;20264;-59
2023/04/28 08:24:33;;;;;;;21.50;14.03;;;11.80;99.90;;;;;;5077883;28;20234;-59
2023/04/28 08:27:02;;;;;;;18.53;14.10;;;11.90;99.90;;;;;;5062013;28;20564;-59
2023/04/28 08:29:30;;;;;;;19.27;13.50;;;11.90;99.90;;;;;;5078825;28;20625;-59
2023/04/28 08:31:57;;;;;;;18.57;14.47;;;11.90;99.90;;;;;;5078939;28;20692;-59
2023/04/28 08:34:24;;;;;;;18.77;13.63;;;11.90;99.90;;;;;;5060989;28;20249;-59
2023/04/28 08:36:52;;;;;;;19.93;13.57;;;11.90;99.90;;;;;;5080862;28;20269;-58
2023/04/28 08:39:22;;;;;;;16.30;13.30;;;11.90;99.90;;;;;;5071613;28;20314;-59
2023/04/28 08:41:49;;;;;;;17.77;14.17;;;12.00;99.90;;;;;;5082624;28;20257;-59
2023/04/28 08:44:17;;;;;;;18.27;14.13;;;12.10;99.90;;;;;;5064439;28;20589;-59
2023/04/28 08:46:46;;;;;;;18.30;13.50;;;12.20;99.90;;;;;;5082646;28;20210;-59
2023/04/28 08:49:17;;;;;;;15.57;13.53;;;12.20;99.90;;;;;;5064120;28;20209;-59
2023/04/28 08:52:11;;;;;;;16.07;13.50;;;12.20;99.90;;;;;;5082319;28;20229;-59
2023/04/28 08:54:40;;;;;;;19.13;13.93;;;12.20;99.90;;;;;;5082076;28;20221;-59
2023/04/28 08:57:08;;;;;;;17.30;13.53;;;12.20;99.90;;;;;;5082928;28;20209;-59
2023/04/28 08:59:40;;;;;;;17.63;13.00;;;12.20;99.90;;;;;;5081570;28;20212;-59
2023/04/28 09:02:10;;;;;;;18.77;13.87;;;12.20;99.90;;;;;;5083337;28;20217;-59
2023/04/28 09:04:37;;;;;;;17.27;13.57;;;12.40;99.90;;;;;;5081850;28;20201;-59
2023/04/28 09:07:12;;;;;;;20.40;13.83;;;12.30;99.90;;;;;;5082269;28;20237;-59
2023/04/28 09:09:39;;;;;;;18.77;13.03;;;12.40;99.90;;;;;;5080822;28;20254;-59
2023/04/28 09:12:06;;;;;;;18.73;14.20;;;12.50;99.90;;;;;;5083028;28;20565;-59
2023/04/28 09:14:35;;;;;;;18.30;13.53;;;12.40;99.90;;;;;;5081438;28;20209;-59
2023/04/28 09:17:08;;;;;;;20.07;14.33;;;12.50;99.90;;;;;;5083310;28;20209;-59
2023/04/28 09:19:36;;;;;;;18.27;14.30;;;12.40;99.90;;;;;;5082005;28;20286;-63
2023/04/28 09:22:05;;;;;;;16.43;13.27;;;12.50;99.90;;;;;;5064891;28;20212;-60
2023/04/28 09:24:52;;;;;;;18.33;14.30;;;12.50;99.90;;;;;;5081451;28;20211;-59
2023/04/28 09:27:27;;;;;;;17.40;14.17;;;12.40;99.90;;;;;;5082375;28;20216;-60
2023/04/28 09:29:54;;;;;;;17.97;13.73;;;12.50;99.90;;;;;;5080690;28;20211;-59
2023/04/28 09:32:22;;;;;;;16.30;13.00;;;12.60;99.90;;;;;;5047647;28;20212;-59
2023/04/28 09:34:52;;;;;;;18.63;13.50;;;12.60;99.90;;;;;;5081778;28;20216;-59
2023/04/28 09:37:30;;;;;;;19.53;13.40;;;12.60;99.90;;;;;;5063802;28;20317;-61
2023/04/28 09:40:04;;;;;;;19.83;14.23;;;12.50;99.90;;;;;;5063623;28;20227;-59
2023/04/28 09:42:36;;;;;;;23.20;15.17;;;12.50;99.90;;;;;;5078835;28;20339;-59
2023/04/28 09:45:03;;;;;;;22.33;15.07;;;12.70;99.90;;;;;;5080709;28;20617;-62
2023/04/28 09:47:34;;;;;;;23.67;15.33;;;12.60;99.90;;;;;;5080974;28;20212;-61
2023/04/28 09:50:03;;;;;;;24.17;15.80;;;12.60;99.90;;;;;;5075721;28;20681;-59
2023/04/28 09:52:32;;;;;;;22.37;15.97;;;12.70;99.90;;;;;;5081090;28;20351;-61
2023/04/28 09:55:01;;;;;;;23.73;15.83;;;12.70;99.90;;;;;;5080626;28;20210;-60
2023/04/28 09:57:32;;;;;;;21.20;15.17;;;12.80;99.90;;;;;;5081238;28;20699;-59
2023/04/28 10:00:01;;;;;;;24.27;16.43;;;12.90;99.90;;;;;;5062550;28;20212;-59
2023/04/28 10:02:29;;;;;;;20.97;15.40;;;12.90;99.90;;;;;;5081968;28;20217;-59
2023/04/28 10:04:59;;;;;;;24.30;16.50;;;12.90;99.90;;;;;;5081131;28;20204;-59
2023/04/28 10:07:27;;;;;;;20.83;15.40;;;13.10;99.90;;;;;;5081679;28;20845;-59
2023/04/28 10:09:55;;;;;;;20.73;15.20;;;13.10;99.90;;;;;;5080853;28;20289;-59
2023/04/28 10:12:23;;;;;;;25.03;16.50;;;13.10;99.90;;;;;;5081296;28;20267;-59
2023/04/28 10:14:53;;;;;;;22.63;15.37;;;13.20;99.90;;;;;;5061574;28;20295;-59
2023/04/28 10:17:21;;;;;;;22.53;15.53;;;13.20;99.90;;;;;;5082161;28;20220;-59
2023/04/28 10:19:51;;;;;;;19.50;14.43;;;13.20;99.90;;;;;;5077894;28;20633;-59
2023/04/28 10:22:56;;;;;;;21.10;15.10;;;13.40;99.90;;;;;;5070082;28;20304;-59
2023/04/28 10:25:30;;;;;;;22.23;14.90;;;13.30;99.90;;;;;;5062753;28;20284;-59
2023/04/28 10:27:58;;;;;;;23.53;15.37;;;13.20;99.90;;;;;;5078162;28;20205;-59
2023/04/28 10:30:27;;;;;;;19.73;13.90;;;13.30;99.90;;;;;;5079542;28;20265;-59
2023/04/28 10:33:05;;;;;;;20.27;14.37;;;13.30;99.90;;;;;;5078780;28;20214;-58
2023/04/28 10:35:35;;;;;;;23.70;15.17;;;13.30;99.90;;;;;;5081500;28;20513;-59
2023/04/28 10:38:08;;;;;;;22.47;15.60;;;13.30;99.90;;;;;;5081745;28;20228;-59
2023/04/28 10:40:41;;;;;;;24.07;14.63;;;13.30;99.90;;;;;;5080359;28;20218;-59
2023/04/28 10:43:10;;;;;;;27.03;16.30;;;13.50;99.90;;;;;;5082094;28;20220;-59
2023/04/28 10:45:52;;;;;;;26.63;15.87;;;13.40;99.90;;;;;;5069383;28;20207;-59
2023/04/28 10:48:45;;;;;;;22.97;15.87;;;13.50;99.90;;;;;;5080734;28;20276;-59
2023/04/28 10:51:15;;;;;;;23.20;15.13;;;13.50;99.90;;;;;;5062436;28;20556;-59
2023/04/28 10:53:44;;;;;;;22.40;15.47;;;13.50;99.90;;;;;;5079883;28;20664;-58
2023/04/28 10:56:17;;;;;;;22.83;15.50;;;13.50;99.90;;;;;;5080719;28;20207;-59
2023/04/28 10:58:45;;;;;;;26.47;15.53;;;13.40;99.90;;;;;;5079010;28;20238;-58
2023/04/28 11:01:24;;;;;;;23.07;15.50;;;13.40;99.90;;;;;;5079638;28;20932;-59
2023/04/28 11:03:59;;;;;;;21.50;15.70;;;13.40;99.90;;;;;;5080800;28;20289;-59
2023/04/28 11:06:27;;;;;;;21.57;15.00;;;13.50;99.90;;;;;;5078169;28;20237;-59
2023/04/28 11:09:00;;;;;;;27.37;15.87;;;13.50;99.90;;;;;;5079549;28;20371;-59
2023/04/28 11:11:33;;;;;;;20.43;14.43;;;13.50;99.90;;;;;;5080360;28;20765;-58
2023/04/28 11:14:16;;;;;;;20.90;14.40;;;13.40;99.90;;;;;;5079925;28;20283;-59
2023/04/28 11:17:06;;;;;;;23.17;14.40;;;13.50;99.90;;;;;;5080510;28;20294;-59
2023/04/28 11:19:41;;;;;;;22.00;14.53;;;13.40;99.90;;;;;;5079069;28;20772;-60
2023/04/28 11:22:18;;;;;;;22.37;14.80;;;13.40;99.90;;;;;;5077691;28;20237;-59
2023/04/28 11:24:59;;;;;;;23.83;15.03;;;13.40;99.90;;;;;;5078811;28;20237;-59
2023/04/28 11:27:27;;;;;;;23.70;15.50;;;13.40;99.90;;;;;;5074845;28;20211;-59
2023/04/28 11:29:54;;;;;;;21.37;14.57;;;13.40;99.90;;;;;;5078640;28;20211;-59
2023/04/28 11:32:33;;;;;;;22.13;15.53;;;13.40;99.90;;;;;;5061699;28;20686;-62
2023/04/28 11:35:01;;;;;;;20.17;14.70;;;13.40;99.90;;;;;;5079384;28;20229;-59
2023/04/28 11:37:27;;;;;;;22.73;15.47;;;13.40;99.90;;;;;;5079705;28;20732;-59
2023/04/28 11:39:56;;;;;;;23.10;15.30;;;13.50;99.90;;;;;;5078027;28;20212;-59
2023/04/28 11:42:24;;;;;;;21.43;14.60;;;13.60;99.90;;;;;;5080031;28;20211;-58
2023/04/28 11:44:53;;;;;;;18.33;13.13;;;13.50;99.90;;;;;;5078700;28;20199;-59
2023/04/28 11:47:32;;;;;;;16.37;12.70;;;13.60;99.90;;;;;;5062807;28;20245;-59
2023/04/28 11:50:00;;;;;;;18.47;13.07;;;13.60;99.90;;;;;;5078898;28;20258;-59
2023/04/28 11:52:27;;;;;;;17.77;13.00;;;13.60;99.90;;;;;;5080124;28;20216;-59
2023/04/28 11:54:59;;;;;;;20.20;13.40;;;13.60;99.90;;;;;;5078472;28;20248;-59
2023/04/28 11:57:27;;;;;;;16.37;12.37;;;13.60;99.90;;;;;;5080613;28;20857;-59
2023/04/28 12:00:13;;;;;;;16.33;10.83;;;13.60;99.90;;;;;;5078761;28;20299;-59
2023/04/28 12:02:40;;;;;;;13.33;9.60;;;13.50;99.90;;;;;;5079941;28;20603;-59
2023/04/28 12:05:08;;;;;;;10.80;8.60;;;13.60;99.90;;;;;;5076754;28;20781;-59
2023/04/28 12:07:42;;;;;;;10.80;8.40;;;13.50;99.90;;;;;;5079749;28;20230;-59
2023/04/28 12:10:15;;;;;;;9.93;7.97;;;13.50;99.90;;;;;;5078355;28;20238;-59
2023/04/28 12:12:43;;;;;;;10.23;7.30;;;13.60;99.90;;;;;;5079063;28;20202;-59
2023/04/28 12:15:13;;;;;;;9.53;6.80;;;13.60;99.90;;;;;;5078063;28;20866;-59
2023/04/28 12:17:41;;;;;;;9.33;6.43;;;13.50;99.90;;;;;;5060884;28;20202;-59
2023/04/28 12:20:10;;;;;;;7.57;5.73;;;13.50;99.90;;;;;;4692717;28;9999589;-58
2023/04/28 12:22:45;;;;;;;6.60;4.40;;;13.40;99.90;;;;;;5058584;28;20805;-58
2023/04/28 12:25:15;;;;;;;5.50;4.37;;;13.30;99.90;;;;;;5063237;28;20606;-58
2023/04/28 12:28:02;;;;;;;4.67;3.60;;;13.30;99.90;;;;;;5072350;28;20297;-58
2023/04/28 12:30:31;;;;;;;6.17;3.70;;;13.10;99.90;;;;;;5059736;28;20233;-58
2023/04/28 12:32:58;;;;;;;6.47;4.17;;;13.10;99.90;;;;;;5031202;28;20208;-58
2023/04/28 12:35:27;;;;;;;4.73;3.47;;;13.20;99.90;;;;;;5044234;28;20205;-58
2023/04/28 12:37:55;;;;;;;4.93;4.20;;;13.10;99.90;;;;;;5066249;28;20661;-58
2023/04/28 12:40:23;;;;;;;6.20;4.13;;;13.20;99.90;;;;;;5067782;28;20209;-58
2023/04/28 12:42:50;;;;;;;6.13;4.00;;;13.20;99.90;;;;;;5026300;28;20221;-59
2023/04/28 12:45:17;;;;;;;5.23;4.57;;;13.20;99.90;;;;;;5047222;28;20220;-58
2023/04/28 12:47:44;;;;;;;4.77;3.97;;;13.20;99.90;;;;;;5049230;28;20285;-58